Currituck — AEFR — position and weather

sailwx.info

Track history (hours):
 
Tides and Currents Weather Stations Pressure Air Temp Water Temp Dewpoint Dewpoint Depression Visibility Wind Speed Wind Dir Waves Ship Positions

Currituck

Last reported at 2015-Jan-20 05:27 UTC. Time now 2015-Feb-28 13:54 UTC.
Position N 34°39' W 077°09'.
Warning: this ship's position is 39 days out of date.

Length 45 m; draft 3 m.

Type: Dredging. MMSI: 369970446.

Date/timePositionNaut miles runAvg speedWind from/ knotsBaromVisibWave heightAir tempDewpointWater temp
2015-Jan-20 05:27N 34°39' W 077°09'5 5.2
2015-Jan-20 04:33N 34°40' W 077°04'7 7.5
2015-Jan-20 03:33N 34°43' W 076°55'7 7.3
2015-Jan-20 02:33N 34°43' W 076°46'3 3.4
2015-Jan-20 01:33N 34°43' W 076°42'0 0.1
2015-Jan-20 00:34N 34°43' W 076°42'6 5.6
2015-Jan-19 23:34N 34°49' W 076°41'7 6.7
2015-Jan-19 22:34N 34°55' W 076°39'  
2015-Jan-17 03:22N 39°38' W 074°10'7 9.0
2015-Jan-17 02:33N 39°44' W 074°05'23 2.3
2015-Jan-16 16:24N 40°07' W 074°02'1 0.3
2015-Jan-16 14:03N 40°06' W 074°02'0 0.2
2015-Jan-16 13:20N 40°06' W 074°02'0 0.1
2015-Jan-16 12:09N 40°06' W 074°02'5 6.0
2015-Jan-16 11:17N 40°11' W 074°01'5 0.9
2015-Jan-16 05:16N 40°06' W 074°02'0 0.1
2015-Jan-16 03:14N 40°06' W 074°02'0 0.1
2015-Jan-16 02:21N 40°06' W 074°02'0 0.1
2015-Jan-16 01:21N 40°06' W 074°02'0 0.2
2015-Jan-16 00:20N 40°06' W 074°02'1 0.6
2015-Jan-15 23:05N 40°07' W 074°02'1 0.9
2015-Jan-15 22:07N 40°06' W 074°02'5 8.1
2015-Jan-15 21:28N 40°11' W 074°01'4 1.0
2015-Jan-15 17:04N 40°07' W 074°02'1 0.5
2015-Jan-15 15:33N 40°06' W 074°02'0 0.1
2015-Jan-15 14:12N 40°06' W 074°02'1 1.0
2015-Jan-15 13:28N 40°07' W 074°02'1 0.9
2015-Jan-15 12:30N 40°06' W 074°02'5 1.6
2015-Jan-15 09:13N 40°11' W 074°01'0 0.0
2015-Jan-14 22:32N 40°11' W 074°01'0 0.0
2015-Jan-14 19:20N 40°11' W 074°01'0 0.0
2015-Jan-14 14:33N 40°11' W 074°01'5 0.5
2015-Jan-14 03:26N 40°06' W 074°02'0 0.3
2015-Jan-14 02:05N 40°06' W 074°02'0 0.0
2015-Jan-14 01:11N 40°06' W 074°02'0 0.0
2015-Jan-13 16:18N 40°06' W 074°03'0 0.1
2015-Jan-13 15:10N 40°06' W 074°03'1 0.2
2015-Jan-13 12:04N 40°06' W 074°02'5 3.2
2015-Jan-13 10:25N 40°11' W 074°01'3 0.8
2015-Jan-13 06:15N 40°08' W 074°01'2 1.1
2015-Jan-13 04:18N 40°06' W 074°02'0 0.1
2015-Jan-13 01:23N 40°06' W 074°03'5 1.8
2015-Jan-12 22:31N 40°11' W 074°01'0 0.0
2015-Jan-12 11:12N 40°11' W 074°01'0 0.0
2015-Jan-12 10:17N 40°11' W 074°01'0 0.0
2015-Jan-12 08:27N 40°11' W 074°01'0 0.0
2015-Jan-12 07:34N 40°11' W 074°01'4 1.4
2015-Jan-12 04:21N 40°07' W 074°02'1 0.7
2015-Jan-12 03:13N 40°06' W 074°02'0 0.1
2015-Jan-12 00:26N 40°06' W 074°02'5 1.5
2015-Jan-11 21:25N 40°11' W 074°00'5 1.1
2015-Jan-11 17:15N 40°06' W 074°02'1 0.3
2015-Jan-11 14:30N 40°07' W 074°02'1 0.8
2015-Jan-11 13:32N 40°06' W 074°02'5 2.2
2015-Jan-11 11:10N 40°11' W 074°01'0 0.0
2015-Jan-11 06:24N 40°11' W 074°01'5 1.6
2015-Jan-11 03:14N 40°06' W 074°02'1 0.6
2015-Jan-11 02:07N 40°07' W 074°02'1 0.5
2015-Jan-11 00:29N 40°06' W 074°02'1 0.1
2015-Jan-10 18:12N 40°07' W 074°02'1 0.1
2015-Jan-10 07:10N 40°06' W 074°02'1 0.4
2015-Jan-10 05:31N 40°07' W 074°01'  
Track history (hours):
 
Tides and Currents Weather Stations Pressure Air Temp Water Temp Dewpoint Dewpoint Depression Visibility Wind Speed Wind Dir Waves Ship Positions

Currituck

Last reported at 2015-Jan-20 05:27 UTC. Time now 2015-Feb-28 13:54 UTC.
Position N 34°39' W 077°09'.
Warning: this ship's position is 39 days out of date.

Length 45 m; draft 3 m.

Type: Dredging. MMSI: 369970446.

Date/timePositionNaut miles runAvg speedWind from/ knotsBaromVisibWave heightAir tempDewpointWater temp
2015-Jan-20 05:27N 34°39' W 077°09'5 5.2
2015-Jan-20 04:33N 34°40' W 077°04'7 7.5
2015-Jan-20 03:33N 34°43' W 076°55'7 7.3
2015-Jan-20 02:33N 34°43' W 076°46'3 3.4
2015-Jan-20 01:33N 34°43' W 076°42'0 0.1
2015-Jan-20 00:34N 34°43' W 076°42'6 5.6
2015-Jan-19 23:34N 34°49' W 076°41'7 6.7
2015-Jan-19 22:34N 34°55' W 076°39'  
2015-Jan-17 03:22N 39°38' W 074°10'7 9.0
2015-Jan-17 02:33N 39°44' W 074°05'23 2.3
2015-Jan-16 16:24N 40°07' W 074°02'1 0.3
2015-Jan-16 14:03N 40°06' W 074°02'0 0.2
2015-Jan-16 13:20N 40°06' W 074°02'0 0.1
2015-Jan-16 12:09N 40°06' W 074°02'5 6.0
2015-Jan-16 11:17N 40°11' W 074°01'5 0.9
2015-Jan-16 05:16N 40°06' W 074°02'0 0.1
2015-Jan-16 03:14N 40°06' W 074°02'0 0.1
2015-Jan-16 02:21N 40°06' W 074°02'0 0.1
2015-Jan-16 01:21N 40°06' W 074°02'0 0.2
2015-Jan-16 00:20N 40°06' W 074°02'1 0.6
2015-Jan-15 23:05N 40°07' W 074°02'1 0.9
2015-Jan-15 22:07N 40°06' W 074°02'5 8.1
2015-Jan-15 21:28N 40°11' W 074°01'4 1.0
2015-Jan-15 17:04N 40°07' W 074°02'1 0.5
2015-Jan-15 15:33N 40°06' W 074°02'0 0.1
2015-Jan-15 14:12N 40°06' W 074°02'1 1.0
2015-Jan-15 13:28N 40°07' W 074°02'1 0.9
2015-Jan-15 12:30N 40°06' W 074°02'5 1.6
2015-Jan-15 09:13N 40°11' W 074°01'0 0.0
2015-Jan-14 22:32N 40°11' W 074°01'0 0.0
2015-Jan-14 19:20N 40°11' W 074°01'0 0.0
2015-Jan-14 14:33N 40°11' W 074°01'5 0.5
2015-Jan-14 03:26N 40°06' W 074°02'0 0.3
2015-Jan-14 02:05N 40°06' W 074°02'0 0.0
2015-Jan-14 01:11N 40°06' W 074°02'0 0.0
2015-Jan-13 16:18N 40°06' W 074°03'0 0.1
2015-Jan-13 15:10N 40°06' W 074°03'1 0.2
2015-Jan-13 12:04N 40°06' W 074°02'5 3.2
2015-Jan-13 10:25N 40°11' W 074°01'3 0.8
2015-Jan-13 06:15N 40°08' W 074°01'2 1.1
2015-Jan-13 04:18N 40°06' W 074°02'0 0.1
2015-Jan-13 01:23N 40°06' W 074°03'5 1.8
2015-Jan-12 22:31N 40°11' W 074°01'0 0.0
2015-Jan-12 11:12N 40°11' W 074°01'0 0.0
2015-Jan-12 10:17N 40°11' W 074°01'0 0.0
2015-Jan-12 08:27N 40°11' W 074°01'0 0.0
2015-Jan-12 07:34N 40°11' W 074°01'4 1.4
2015-Jan-12 04:21N 40°07' W 074°02'1 0.7
2015-Jan-12 03:13N 40°06' W 074°02'0 0.1
2015-Jan-12 00:26N 40°06' W 074°02'5 1.5
2015-Jan-11 21:25N 40°11' W 074°00'5 1.1
2015-Jan-11 17:15N 40°06' W 074°02'1 0.3
2015-Jan-11 14:30N 40°07' W 074°02'1 0.8
2015-Jan-11 13:32N 40°06' W 074°02'5 2.2
2015-Jan-11 11:10N 40°11' W 074°01'0 0.0
2015-Jan-11 06:24N 40°11' W 074°01'5 1.6
2015-Jan-11 03:14N 40°06' W 074°02'1 0.6
2015-Jan-11 02:07N 40°07' W 074°02'1 0.5
2015-Jan-11 00:29N 40°06' W 074°02'1 0.1
2015-Jan-10 18:12N 40°07' W 074°02'1 0.1
2015-Jan-10 07:10N 40°06' W 074°02'1 0.4
2015-Jan-10 05:31N 40°07' W 074°01'  

Dump ship's entire track history